createdAt,value
2019-03-19T00:01:05.419Z,204.93
2019-03-19T00:04:01.116Z,186.40
2019-03-19T00:06:56.730Z,183.57
2019-03-19T00:09:52.597Z,193.05
2019-03-19T00:12:48.033Z,201.50
2019-03-19T00:15:43.752Z,173.72
2019-03-19T00:18:39.273Z,245.00
2019-03-19T00:21:34.733Z,181.95
2019-03-19T00:24:30.330Z,167.18
2019-03-19T00:27:25.666Z,166.70
2019-03-19T00:30:21.256Z,182.80
2019-03-19T00:33:16.513Z,175.45
2019-03-19T00:36:12.208Z,176.10
2019-03-19T00:39:08.242Z,189.28
2019-03-19T00:42:03.497Z,191.85
2019-03-19T00:44:58.794Z,192.07
2019-03-19T00:47:54.464Z,221.37
2019-03-19T00:50:50.289Z,213.32
2019-03-19T00:53:45.580Z,217.07
2019-03-19T00:56:41.932Z,254.05
2019-03-19T00:59:37.494Z,263.52
2019-03-19T01:02:32.816Z,271.73
2019-03-19T01:05:28.127Z,263.27
2019-03-19T01:08:23.722Z,260.38
2019-03-19T01:11:18.858Z,252.82
2019-03-19T01:14:14.370Z,233.60
2019-03-19T01:17:10.293Z,221.95
2019-03-19T01:20:05.765Z,295.37
2019-03-19T01:23:01.188Z,302.60
2019-03-19T01:25:57.434Z,312.38
2019-03-19T01:28:54.091Z,323.70
2019-03-19T01:31:50.077Z,320.93
2019-03-19T01:34:45.787Z,334.85
2019-03-19T01:37:41.314Z,320.10
2019-03-19T01:40:36.725Z,321.32
2019-03-19T01:43:32.630Z,309.35
2019-03-19T01:46:28.374Z,277.32
2019-03-19T01:49:23.706Z,257.80
2019-03-19T01:52:18.461Z,224.27
2019-03-19T01:55:15.205Z,222.17
2019-03-19T01:58:10.554Z,220.37
2019-03-19T02:01:06.026Z,223.57
2019-03-19T02:04:02.325Z,218.42
2019-03-19T02:06:58.219Z,215.05
2019-03-19T02:09:53.763Z,228.55
2019-03-19T02:12:49.556Z,190.15
2019-03-19T02:15:46.795Z,218.25
2019-03-19T02:18:43.840Z,210.75
2019-03-19T02:21:39.534Z,184.28
2019-03-19T02:24:35.265Z,186.95
2019-03-19T02:27:31.080Z,148.78
2019-03-19T02:30:26.775Z,131.10
2019-03-19T02:33:22.546Z,112.62
2019-03-19T02:36:18.728Z,117.20
2019-03-19T02:39:13.979Z,123.72
2019-03-19T02:42:11.335Z,123.92
2019-03-19T02:45:07.077Z,146.57
2019-03-19T02:48:02.864Z,134.63
2019-03-19T02:50:59.766Z,140.55
2019-03-19T02:53:55.161Z,140.57
2019-03-19T02:56:51.939Z,140.40
2019-03-19T02:59:47.361Z,125.02
2019-03-19T03:02:43.881Z,105.12
2019-03-19T03:05:39.669Z,110.85
2019-03-19T03:08:35.354Z,115.57
2019-03-19T03:11:31.014Z,100.55
2019-03-19T03:14:26.913Z,110.68
2019-03-19T03:17:22.286Z,113.88
2019-03-19T03:20:18.012Z,106.12
2019-03-19T03:23:14.489Z,117.25
2019-03-19T03:26:11.226Z,116.20
2019-03-19T03:29:06.408Z,101.07
2019-03-19T03:32:03.542Z,104.97
2019-03-19T03:34:59.217Z,102.87
2019-03-19T03:37:54.775Z,111.85
2019-03-19T03:40:51.340Z,101.70
2019-03-19T03:43:47.233Z,95.60
2019-03-19T03:46:43.412Z,97.33
2019-03-19T03:49:39.287Z,106.95
2019-03-19T03:52:35.491Z,112.25
2019-03-19T03:55:32.690Z,103.45
2019-03-19T03:58:28.354Z,112.03
2019-03-19T04:01:26.034Z,106.92
2019-03-19T04:04:22.421Z,128.53
2019-03-19T04:07:19.794Z,123.80
2019-03-19T04:10:15.827Z,105.92
2019-03-19T04:13:10.824Z,133.32
2019-03-19T04:16:08.254Z,137.47
2019-03-19T04:19:03.334Z,139.77
2019-03-19T04:21:58.485Z,151.30
2019-03-19T04:24:54.099Z,153.40
2019-03-19T04:27:49.887Z,149.02
2019-03-19T04:30:45.515Z,169.45
2019-03-19T04:33:41.364Z,177.70
2019-03-19T04:36:36.774Z,160.00
2019-03-19T04:39:31.868Z,139.03
2019-03-19T04:42:27.565Z,153.30
2019-03-19T04:45:23.364Z,151.63
2019-03-19T04:48:20.924Z,158.00
2019-03-19T04:51:16.395Z,174.75
2019-03-19T04:54:11.677Z,104.53
2019-03-19T04:57:48.822Z,110.40
2019-03-19T05:00:53.633Z,122.92
2019-03-19T05:03:56.227Z,108.97
2019-03-19T05:06:53.409Z,104.87
2019-03-19T05:10:08.290Z,97.30
2019-03-19T05:13:13.430Z,95.57
2019-03-19T05:16:30.919Z,97.95
2019-03-19T05:19:35.232Z,125.25
2019-03-19T05:22:37.625Z,104.12
2019-03-19T05:29:18.614Z,117.35
2019-03-19T05:32:17.758Z,78.25
2019-03-19T05:43:56.493Z,88.33
2019-03-19T05:50:06.390Z,81.05
2019-03-19T05:53:02.628Z,87.78
2019-03-19T05:55:57.873Z,99.15
2019-03-19T05:58:53.311Z,103.27
2019-03-19T06:01:54.530Z,91.02
2019-03-19T06:05:11.646Z,95.00
2019-03-19T06:08:45.998Z,104.27
2019-03-19T06:11:45.981Z,93.55
2019-03-19T06:15:22.657Z,100.22
2019-03-19T06:18:34.598Z,99.50
2019-03-19T06:21:56.774Z,96.42
2019-03-19T06:25:10.305Z,104.63
2019-03-19T06:28:09.488Z,82.25
2019-03-19T06:31:12.448Z,96.20
2019-03-19T06:34:10.090Z,81.08
2019-03-19T06:37:10.256Z,87.05
2019-03-19T06:40:28.904Z,92.33
2019-03-19T06:43:33.237Z,85.80
2019-03-19T06:46:47.134Z,89.05
2019-03-19T06:49:59.254Z,76.47
2019-03-19T06:53:05.027Z,85.55
2019-03-19T06:56:04.904Z,84.03
2019-03-19T06:59:09.113Z,101.15
2019-03-19T07:02:15.603Z,81.12
2019-03-19T07:05:13.422Z,81.32
2019-03-19T07:08:35.477Z,73.60
2019-03-19T07:11:40.011Z,75.78
2019-03-19T07:14:36.275Z,75.15
2019-03-19T07:17:38.509Z,61.60
2019-03-19T07:20:42.834Z,61.65
2019-03-19T07:23:40.325Z,61.33
2019-03-19T07:27:12.601Z,58.68
2019-03-19T07:30:48.707Z,67.62
2019-03-19T07:33:56.500Z,56.18
2019-03-19T07:37:38.781Z,73.90
2019-03-19T07:40:53.337Z,55.65
2019-03-19T07:43:58.718Z,50.73
2019-03-19T07:47:21.504Z,51.85
2019-03-19T07:50:38.446Z,49.73
2019-03-19T07:53:36.497Z,45.98
2019-03-19T07:56:46.799Z,45.73
2019-03-19T07:59:41.653Z,54.35
2019-03-19T08:07:14.377Z,52.58
2019-03-19T08:10:23.041Z,49.05
2019-03-19T08:13:22.120Z,40.15
2019-03-19T08:16:45.544Z,48.35
2019-03-19T08:19:57.809Z,44.13
2019-03-19T08:22:53.375Z,52.40
2019-03-19T08:25:48.547Z,53.70
2019-03-19T08:28:43.583Z,52.17
2019-03-19T08:31:39.499Z,50.85
2019-03-19T08:34:36.260Z,53.35
2019-03-19T08:37:31.207Z,64.32
2019-03-19T08:40:31.738Z,47.93
2019-03-19T08:43:33.523Z,49.03
2019-03-19T08:46:30.088Z,45.17
2019-03-19T08:49:30.596Z,56.53
2019-03-19T08:52:26.471Z,59.53
2019-03-19T08:55:25.165Z,43.08
2019-03-19T08:58:20.527Z,51.92
2019-03-19T09:01:16.428Z,66.20
2019-03-19T09:04:12.397Z,53.65
2019-03-19T09:07:17.170Z,61.35
2019-03-19T09:10:15.875Z,49.65
2019-03-19T09:13:11.570Z,55.35
2019-03-19T09:16:19.230Z,51.95
2019-03-19T09:19:49.191Z,53.48
2019-03-19T09:22:45.758Z,63.75
2019-03-19T09:25:40.994Z,47.50
2019-03-19T09:28:37.965Z,57.55
2019-03-19T09:31:35.620Z,47.98
2019-03-19T09:34:32.213Z,49.40
2019-03-19T09:44:22.184Z,55.15
2019-03-19T09:47:18.737Z,68.45
2019-03-19T09:50:18.515Z,65.72
2019-03-19T09:53:24.360Z,64.10
2019-03-19T09:56:25.129Z,77.00
2019-03-19T09:59:26.993Z,52.23
2019-03-19T10:02:21.205Z,55.55
2019-03-19T10:05:18.584Z,56.28
2019-03-19T10:08:15.425Z,50.98
2019-03-19T10:11:12.022Z,63.90
2019-03-19T10:14:08.821Z,54.95
2019-03-19T10:17:05.199Z,56.30
2019-03-19T10:20:01.825Z,62.48
2019-03-19T10:22:59.752Z,58.23
2019-03-19T10:26:02.205Z,51.92
2019-03-19T10:29:01.051Z,55.28
2019-03-19T10:31:56.737Z,53.92
2019-03-19T10:34:53.291Z,60.55
2019-03-19T10:38:00.619Z,59.13
2019-03-19T10:40:55.773Z,64.35
2019-03-19T10:43:50.617Z,62.83
2019-03-19T10:46:47.603Z,58.80
2019-03-19T10:49:44.415Z,66.22
2019-03-19T10:52:40.815Z,58.80
2019-03-19T10:55:36.695Z,44.15
2019-03-19T10:58:33.215Z,44.85
2019-03-19T11:01:29.381Z,49.67
2019-03-19T11:04:25.379Z,49.00
2019-03-19T11:07:21.107Z,49.55
2019-03-19T11:10:17.263Z,42.65
2019-03-19T11:13:13.448Z,40.20
2019-03-19T11:16:10.442Z,38.95
2019-03-19T11:19:06.895Z,41.45
2019-03-19T11:22:02.985Z,38.17
2019-03-19T11:25:06.589Z,45.88
2019-03-19T11:28:05.408Z,45.65
2019-03-19T11:38:29.613Z,38.65
2019-03-19T11:41:29.079Z,51.48
2019-03-19T11:44:31.954Z,45.88
2019-03-19T11:47:27.593Z,49.98
2019-03-19T11:50:27.771Z,46.08
2019-03-19T11:53:22.838Z,49.58
2019-03-19T11:56:19.313Z,51.77
2019-03-19T11:59:14.632Z,44.23
2019-03-19T12:02:11.182Z,63.80
2019-03-19T12:05:10.934Z,55.52
2019-03-19T12:08:06.406Z,44.45
2019-03-19T12:11:02.759Z,42.45
2019-03-19T12:14:02.729Z,51.02
2019-03-19T12:16:58.744Z,60.38
2019-03-19T12:19:54.009Z,72.80
2019-03-19T12:22:49.969Z,74.20
2019-03-19T12:25:45.456Z,81.20
2019-03-19T12:28:40.501Z,66.22
2019-03-19T12:31:41.337Z,78.07
2019-03-19T12:34:36.768Z,84.80
2019-03-19T12:37:34.337Z,90.07
2019-03-19T12:40:36.766Z,83.78
2019-03-19T12:43:27.336Z,74.45
2019-03-19T12:46:22.132Z,71.57
2019-03-19T12:49:17.193Z,87.27
2019-03-19T12:52:12.482Z,85.70
2019-03-19T12:55:08.540Z,90.15
2019-03-19T12:58:05.575Z,87.88
2019-03-19T13:01:01.890Z,91.90
2019-03-19T13:03:56.906Z,82.67
2019-03-19T13:06:51.793Z,97.65
2019-03-19T13:09:48.138Z,120.28
2019-03-19T13:12:43.927Z,100.20
2019-03-19T13:15:39.368Z,113.15
2019-03-19T13:18:34.574Z,102.58
2019-03-19T13:21:30.104Z,106.55
2019-03-19T13:24:24.985Z,106.90
2019-03-19T13:27:20.410Z,104.97
2019-03-19T13:30:20.742Z,101.38
2019-03-19T13:33:16.659Z,114.10
2019-03-19T13:36:12.160Z,97.12
2019-03-19T13:39:08.235Z,97.57
2019-03-19T13:42:03.472Z,103.42
2019-03-19T13:45:01.475Z,102.42
2019-03-19T13:47:58.656Z,91.32
2019-03-19T13:50:54.331Z,90.53
2019-03-19T13:53:49.932Z,102.72
2019-03-19T13:56:45.080Z,99.75
2019-03-19T13:59:41.137Z,94.37
2019-03-19T14:02:36.723Z,111.47
2019-03-19T14:05:32.237Z,112.88
2019-03-19T14:08:28.177Z,99.17
2019-03-19T14:11:23.484Z,100.18
2019-03-19T14:14:19.086Z,98.58
2019-03-19T14:17:15.281Z,104.05
2019-03-19T14:20:12.202Z,86.10
2019-03-19T14:23:07.683Z,88.17
2019-03-19T14:26:04.849Z,96.53
2019-03-19T14:29:00.341Z,93.03
2019-03-19T14:31:56.006Z,81.28
2019-03-19T14:34:51.989Z,81.53
2019-03-19T14:37:47.558Z,95.50
2019-03-19T14:40:42.921Z,87.42
2019-03-19T14:43:38.766Z,79.20
2019-03-19T14:46:34.461Z,87.12
2019-03-19T14:49:29.608Z,82.42
2019-03-19T14:52:26.799Z,77.62
2019-03-19T14:55:23.375Z,85.22
2019-03-19T14:58:20.084Z,90.07
2019-03-19T15:01:19.706Z,81.05
2019-03-19T15:04:15.188Z,85.47
2019-03-19T15:07:11.983Z,84.83
2019-03-19T15:10:08.406Z,92.60
2019-03-19T15:13:05.327Z,83.35
2019-03-19T15:16:01.351Z,83.95
2019-03-19T15:18:58.093Z,82.05
2019-03-19T15:21:53.140Z,97.15
2019-03-19T15:24:48.816Z,79.10
2019-03-19T15:27:45.626Z,80.22
2019-03-19T15:30:42.849Z,77.47
2019-03-19T15:33:38.409Z,81.00
2019-03-19T15:36:33.996Z,97.17
2019-03-19T15:39:30.991Z,76.92
2019-03-19T15:42:27.775Z,74.62
2019-03-19T15:45:24.139Z,91.82
2019-03-19T15:48:20.375Z,78.22
2019-03-19T15:51:16.087Z,82.78
2019-03-19T15:54:12.006Z,79.20
2019-03-19T15:57:08.618Z,79.70
2019-03-19T16:00:04.400Z,76.42
2019-03-19T16:03:00.356Z,74.15
2019-03-19T16:05:57.325Z,91.28
2019-03-19T16:08:54.517Z,78.17
2019-03-19T16:11:50.232Z,83.80
2019-03-19T16:14:48.899Z,75.45
2019-03-19T16:17:44.141Z,80.03
2019-03-19T16:20:39.661Z,74.37
2019-03-19T16:23:34.565Z,75.12
2019-03-19T16:26:29.796Z,74.62
2019-03-19T16:29:26.477Z,86.37
2019-03-19T16:32:23.430Z,84.22
2019-03-19T16:35:20.596Z,86.25
2019-03-19T16:38:16.511Z,89.22
2019-03-19T16:41:12.649Z,93.45
2019-03-19T16:44:08.224Z,85.00
2019-03-19T16:47:03.620Z,92.08
2019-03-19T16:49:59.297Z,91.20
2019-03-19T16:52:55.245Z,87.57
2019-03-19T16:55:51.113Z,83.45
2019-03-19T16:58:48.294Z,105.78
2019-03-19T17:01:45.847Z,95.45
2019-03-19T17:04:42.262Z,94.03
2019-03-19T17:07:40.271Z,105.45
2019-03-19T17:10:36.820Z,104.40
2019-03-19T17:13:32.854Z,101.58
2019-03-19T17:16:28.691Z,99.55
2019-03-19T17:19:23.979Z,109.10
2019-03-19T17:22:21.197Z,110.90
2019-03-19T17:25:17.880Z,115.92
2019-03-19T17:28:22.101Z,118.57
2019-03-19T17:31:10.545Z,135.30
2019-03-19T17:34:07.144Z,137.20
2019-03-19T17:37:02.851Z,142.32
2019-03-19T17:39:57.838Z,125.05
2019-03-19T17:42:53.481Z,112.85
2019-03-19T17:45:49.013Z,109.37
2019-03-19T17:48:52.297Z,99.80
2019-03-19T17:51:46.722Z,101.55
2019-03-19T17:54:43.223Z,94.30
2019-03-19T17:57:39.521Z,87.90
2019-03-19T18:00:36.286Z,83.70
2019-03-19T18:03:32.531Z,87.37
2019-03-19T18:06:28.468Z,98.07
2019-03-19T18:09:24.527Z,97.70
2019-03-19T18:12:19.754Z,85.77
2019-03-19T18:15:15.682Z,83.58
2019-03-19T18:18:11.721Z,91.92
2019-03-19T18:21:07.701Z,79.22
2019-03-19T18:24:04.012Z,92.42
2019-03-19T18:27:01.399Z,82.37
2019-03-19T18:29:57.098Z,81.28
2019-03-19T18:32:53.274Z,86.78
2019-03-19T18:35:49.025Z,82.15
2019-03-19T18:38:44.686Z,79.70
2019-03-19T18:41:41.178Z,80.60
2019-03-19T18:44:37.129Z,74.25
2019-03-19T18:47:33.208Z,75.83
2019-03-19T18:50:29.119Z,84.92
2019-03-19T18:53:26.439Z,88.65
2019-03-19T18:56:23.543Z,92.17
2019-03-19T18:59:19.529Z,86.65
2019-03-19T19:02:15.176Z,80.75
2019-03-19T19:05:11.450Z,77.70
2019-03-19T19:08:07.357Z,78.85
2019-03-19T19:11:02.624Z,82.53
2019-03-19T19:13:58.354Z,71.90
2019-03-19T19:16:53.662Z,81.02
2019-03-19T19:19:49.506Z,77.90
2019-03-19T19:22:45.708Z,75.30
2019-03-19T19:25:41.438Z,82.50
2019-03-19T19:28:37.132Z,81.42
2019-03-19T19:31:32.965Z,82.67
2019-03-19T19:34:28.779Z,76.12
2019-03-19T19:37:24.468Z,76.33
2019-03-19T19:40:20.296Z,82.20
2019-03-19T19:43:16.407Z,75.87
2019-03-19T19:46:12.257Z,74.92
2019-03-19T19:49:08.143Z,72.72
2019-03-19T19:52:04.000Z,72.17
2019-03-19T19:54:59.384Z,76.00
2019-03-19T19:57:55.777Z,75.52
2019-03-19T20:00:51.160Z,72.20
2019-03-19T20:03:46.555Z,78.42
2019-03-19T20:06:43.281Z,75.62
2019-03-19T20:09:38.986Z,69.58
2019-03-19T20:12:34.811Z,66.82
2019-03-19T20:15:30.247Z,65.25
2019-03-19T20:18:25.099Z,89.15
2019-03-19T20:21:20.670Z,96.75
2019-03-19T20:24:15.600Z,94.75
2019-03-19T20:27:11.425Z,78.02
2019-03-19T20:30:07.395Z,96.42
2019-03-19T20:33:03.926Z,113.95
2019-03-19T20:36:35.314Z,92.57
2019-03-19T20:39:31.294Z,96.57
2019-03-19T20:42:27.062Z,103.78
2019-03-19T20:45:22.826Z,94.70
2019-03-19T20:48:18.583Z,105.15
2019-03-19T20:51:14.850Z,115.35
2019-03-19T20:54:10.266Z,99.65
2019-03-19T20:57:05.570Z,106.58
2019-03-19T21:00:01.192Z,101.38
2019-03-19T21:02:57.167Z,101.25
2019-03-19T21:05:52.718Z,103.40
2019-03-19T21:08:48.213Z,94.50
2019-03-19T21:11:43.491Z,103.78
2019-03-19T21:14:39.404Z,110.42
2019-03-19T21:17:35.923Z,115.28
2019-03-19T21:20:31.497Z,105.60
2019-03-19T21:23:26.996Z,104.00
2019-03-19T21:26:23.079Z,106.87
2019-03-19T21:29:18.643Z,101.78
2019-03-19T21:32:14.712Z,104.20
2019-03-19T21:35:09.957Z,101.97
2019-03-19T21:38:04.937Z,97.00
2019-03-19T21:41:00.758Z,89.03
2019-03-19T21:43:55.989Z,90.42
2019-03-19T21:46:51.618Z,94.62
2019-03-19T21:49:47.959Z,102.80
2019-03-19T21:52:43.360Z,89.32
2019-03-19T21:55:39.280Z,92.33
2019-03-19T21:58:35.094Z,86.55
2019-03-19T22:01:31.816Z,89.40
2019-03-19T22:04:27.332Z,92.37
2019-03-19T22:07:23.034Z,99.15
2019-03-19T22:10:18.889Z,97.22
2019-03-19T22:13:14.766Z,103.87
2019-03-19T22:16:10.221Z,95.15
2019-03-19T22:19:04.978Z,92.82
2019-03-19T22:22:00.512Z,88.42
2019-03-19T22:24:55.564Z,95.62
2019-03-19T22:27:51.387Z,92.88
2019-03-19T22:30:47.667Z,100.75
2019-03-19T22:33:43.377Z,104.10
2019-03-19T22:36:39.018Z,104.87
2019-03-19T22:39:34.319Z,103.17
2019-03-19T22:42:30.285Z,105.37
2019-03-19T22:45:25.853Z,122.25
2019-03-19T22:48:21.753Z,107.03
2019-03-19T22:51:17.596Z,105.43
2019-03-19T22:54:13.524Z,105.37
2019-03-19T22:57:09.153Z,101.07
2019-03-19T23:00:05.207Z,94.40
2019-03-19T23:03:01.617Z,101.40
2019-03-19T23:05:57.767Z,102.72
2019-03-19T23:08:52.762Z,91.50
2019-03-19T23:11:48.235Z,90.57
2019-03-19T23:14:44.081Z,97.10
2019-03-19T23:17:40.317Z,95.92
2019-03-19T23:20:35.853Z,106.15
2019-03-19T23:23:31.803Z,108.22
2019-03-19T23:26:27.963Z,102.82
2019-03-19T23:29:23.374Z,104.40
2019-03-19T23:32:18.761Z,104.03
2019-03-19T23:35:14.379Z,108.52
2019-03-19T23:38:09.772Z,107.75
2019-03-19T23:41:06.003Z,103.53
2019-03-19T23:44:01.498Z,105.75
2019-03-19T23:46:57.695Z,110.80
2019-03-19T23:49:52.717Z,98.15
2019-03-19T23:52:48.047Z,104.55
2019-03-19T23:55:43.378Z,93.12
2019-03-19T23:58:39.256Z,94.40
